createdAt,value
2022-10-09T00:00:29.146Z,59.19
2022-10-09T00:01:29.157Z,57.57
2022-10-09T00:02:29.177Z,59.83
2022-10-09T00:03:29.120Z,57.15
2022-10-09T00:04:29.111Z,59.24
2022-10-09T00:05:29.200Z,57.80
2022-10-09T00:06:29.100Z,59.81
2022-10-09T00:07:29.080Z,58.20
2022-10-09T00:08:29.071Z,59.79
2022-10-09T00:09:29.066Z,58.88
2022-10-09T00:10:29.050Z,59.68
2022-10-09T00:11:29.045Z,55.51
2022-10-09T00:12:29.029Z,59.45
2022-10-09T00:13:29.014Z,56.98
2022-10-09T00:14:29.011Z,57.48
2022-10-09T00:15:29.004Z,58.43
2022-10-09T00:16:29.103Z,58.52
2022-10-09T00:17:29.072Z,60.63
2022-10-09T00:18:28.977Z,57.92
2022-10-09T00:19:28.997Z,57.71
2022-10-09T00:20:28.960Z,56.64
2022-10-09T00:21:28.962Z,58.85
2022-10-09T00:22:28.928Z,55.54
2022-10-09T00:23:28.924Z,54.68
2022-10-09T00:24:28.911Z,57.76
2022-10-09T00:25:28.899Z,57.29
2022-10-09T00:26:28.957Z,58.42
2022-10-09T00:27:28.885Z,56.20
2022-10-09T00:28:28.928Z,56.54
2022-10-09T00:29:28.864Z,60.79
2022-10-09T00:30:28.890Z,56.47
2022-10-09T00:31:28.857Z,57.26
2022-10-09T00:32:28.839Z,55.41
2022-10-09T00:33:28.820Z,58.93
2022-10-09T00:34:28.821Z,57.07
2022-10-09T00:35:28.803Z,53.93
2022-10-09T00:36:28.808Z,59.78
2022-10-09T00:37:28.783Z,56.51
2022-10-09T00:38:28.771Z,57.17
2022-10-09T00:39:28.762Z,57.67
2022-10-09T00:40:28.754Z,58.85
2022-10-09T00:41:28.758Z,56.05
2022-10-09T00:42:28.727Z,56.27
2022-10-09T00:43:28.717Z,56.76
2022-10-09T00:44:28.721Z,60.40
2022-10-09T00:45:28.700Z,56.58
2022-10-09T00:46:28.765Z,57.02
2022-10-09T00:47:28.683Z,56.99
2022-10-09T00:48:28.667Z,55.16
2022-10-09T00:49:28.657Z,55.11
2022-10-09T00:50:28.646Z,55.54
2022-10-09T00:51:28.645Z,60.51
2022-10-09T00:52:28.623Z,57.11
2022-10-09T00:53:28.616Z,57.85
2022-10-09T00:54:28.603Z,58.02
2022-10-09T00:55:28.592Z,59.86
2022-10-09T00:56:28.600Z,53.59
2022-10-09T00:57:28.575Z,59.36
2022-10-09T00:58:28.565Z,59.53
2022-10-09T00:59:28.557Z,57.82
2022-10-09T01:00:28.565Z,59.47
2022-10-09T01:01:28.587Z,57.51
2022-10-09T01:02:28.583Z,56.43
2022-10-09T01:03:28.517Z,57.45
2022-10-09T01:04:28.502Z,60.65
2022-10-09T01:05:28.495Z,58.40
2022-10-09T01:06:28.497Z,58.22
2022-10-09T01:07:28.477Z,56.46
2022-10-09T01:08:28.463Z,55.91
2022-10-09T01:09:28.454Z,61.40
2022-10-09T01:10:28.444Z,59.53
2022-10-09T01:11:28.444Z,58.83
2022-10-09T01:12:28.420Z,55.26
2022-10-09T01:13:28.435Z,60.63
2022-10-09T01:14:28.398Z,57.15
2022-10-09T01:15:28.431Z,60.31
2022-10-09T01:16:28.395Z,60.82
2022-10-09T01:17:28.369Z,61.17
2022-10-09T01:18:28.359Z,57.32
2022-10-09T01:19:28.346Z,58.96
2022-10-09T01:20:28.343Z,53.45
2022-10-09T01:21:28.337Z,55.79
2022-10-09T01:22:28.316Z,58.68
2022-10-09T01:23:28.301Z,58.55
2022-10-09T01:24:28.299Z,57.14
2022-10-09T01:25:28.285Z,58.74
2022-10-09T01:26:28.291Z,55.60
2022-10-09T01:27:28.267Z,54.30
2022-10-09T01:28:28.323Z,60.68
2022-10-09T01:29:28.246Z,57.64
2022-10-09T01:30:28.237Z,57.78
2022-10-09T01:31:28.305Z,55.93
2022-10-09T01:32:28.216Z,60.20
2022-10-09T01:33:28.213Z,61.24
2022-10-09T01:34:28.197Z,58.19
2022-10-09T01:35:28.190Z,58.45
2022-10-09T01:36:28.192Z,56.12
2022-10-09T01:37:28.170Z,61.14
2022-10-09T01:38:28.156Z,54.77
2022-10-09T01:39:28.152Z,53.90
2022-10-09T01:40:28.137Z,58.60
2022-10-09T01:41:28.138Z,56.52
2022-10-09T01:42:28.120Z,51.05
2022-10-09T01:43:28.108Z,56.62
2022-10-09T01:44:28.097Z,57.98
2022-10-09T01:45:28.089Z,56.67
2022-10-09T01:46:28.164Z,55.97
2022-10-09T01:47:28.067Z,57.28
2022-10-09T01:48:28.063Z,60.89
2022-10-09T01:49:28.044Z,57.35
2022-10-09T01:50:28.045Z,56.19
2022-10-09T01:51:28.034Z,59.64
2022-10-09T01:52:28.012Z,55.57
2022-10-09T01:53:28.003Z,57.71
2022-10-09T01:54:27.994Z,59.73
2022-10-09T01:55:27.982Z,55.31
2022-10-09T01:56:27.991Z,54.96
2022-10-09T01:57:27.964Z,54.77
2022-10-09T01:58:27.952Z,54.91
2022-10-09T01:59:27.944Z,58.74
2022-10-09T02:00:27.933Z,58.37
2022-10-09T02:01:27.979Z,54.48
2022-10-09T02:02:27.972Z,56.36
2022-10-09T02:03:27.904Z,57.13
2022-10-09T02:04:27.895Z,59.58
2022-10-09T02:05:27.895Z,61.30
2022-10-09T02:06:27.874Z,56.82
2022-10-09T02:07:27.876Z,57.89
2022-10-09T02:08:27.854Z,58.18
2022-10-09T02:09:27.852Z,58.43
2022-10-09T02:10:27.844Z,60.24
2022-10-09T02:11:59.744Z,54.21
2022-10-09T02:12:27.818Z,53.03
2022-10-09T02:13:27.803Z,56.24
2022-10-09T02:14:27.798Z,57.54
2022-10-09T02:15:27.790Z,56.49
2022-10-09T02:16:27.781Z,57.06
2022-10-09T02:17:27.777Z,51.39
2022-10-09T02:18:27.749Z,56.18
2022-10-09T02:19:27.749Z,56.61
2022-10-09T02:20:27.741Z,57.74
2022-10-09T02:21:27.729Z,54.15
2022-10-09T02:22:27.724Z,56.88
2022-10-09T02:23:27.706Z,59.34
2022-10-09T02:24:27.697Z,57.70
2022-10-09T02:25:27.686Z,63.03
2022-10-09T02:26:27.673Z,53.91
2022-10-09T02:27:27.672Z,58.16
2022-10-09T02:28:27.694Z,58.93
2022-10-09T02:29:27.642Z,56.08
2022-10-09T02:30:27.635Z,57.52
2022-10-09T02:31:27.715Z,54.76
2022-10-09T02:32:27.628Z,55.75
2022-10-09T02:33:27.608Z,59.16
2022-10-09T02:34:27.600Z,56.62
2022-10-09T02:35:27.586Z,55.82
2022-10-09T02:36:27.576Z,54.55
2022-10-09T02:37:27.572Z,56.69
2022-10-09T02:38:27.553Z,56.48
2022-10-09T02:39:27.546Z,57.40
2022-10-09T02:40:27.552Z,56.18
2022-10-09T02:41:27.536Z,55.49
2022-10-09T02:42:27.521Z,57.49
2022-10-09T02:43:27.510Z,58.47
2022-10-09T02:44:27.503Z,57.81
2022-10-09T02:45:27.488Z,58.59
2022-10-09T02:46:27.522Z,57.42
2022-10-09T02:47:27.465Z,58.33
2022-10-09T02:48:27.458Z,54.13
2022-10-09T02:49:27.446Z,52.91
2022-10-09T02:50:27.437Z,55.07
2022-10-09T02:51:27.434Z,57.16
2022-10-09T02:52:27.426Z,58.03
2022-10-09T02:53:27.412Z,55.91
2022-10-09T02:54:27.397Z,57.67
2022-10-09T02:55:27.388Z,60.03
2022-10-09T02:56:27.392Z,55.91
2022-10-09T02:57:27.370Z,57.69
2022-10-09T02:58:27.360Z,58.79
2022-10-09T02:59:27.350Z,58.32
2022-10-09T03:00:27.357Z,58.60
2022-10-09T03:01:27.384Z,56.24
2022-10-09T03:02:27.454Z,60.80
2022-10-09T03:03:27.312Z,56.47
2022-10-09T03:04:27.294Z,59.29
2022-10-09T03:05:27.292Z,54.77
2022-10-09T03:06:27.291Z,59.90
2022-10-09T03:07:27.270Z,55.01
2022-10-09T03:08:27.427Z,53.00
2022-10-09T03:09:32.778Z,55.50
2022-10-09T03:10:29.234Z,56.41
2022-10-09T03:11:27.246Z,57.15
2022-10-09T03:12:27.213Z,53.27
2022-10-09T03:13:27.210Z,57.76
2022-10-09T03:14:27.201Z,57.63
2022-10-09T03:15:27.190Z,51.82
2022-10-09T03:16:27.258Z,54.39
2022-10-09T03:17:27.175Z,53.24
2022-10-09T03:18:27.154Z,56.64
2022-10-09T03:19:27.149Z,56.04
2022-10-09T03:20:27.137Z,58.31
2022-10-09T03:21:27.136Z,55.01
2022-10-09T03:22:27.115Z,58.03
2022-10-09T03:23:27.105Z,55.24
2022-10-09T03:24:27.094Z,52.63
2022-10-09T03:25:27.087Z,57.82
2022-10-09T03:26:27.096Z,55.54
2022-10-09T03:27:27.071Z,54.62
2022-10-09T03:28:27.101Z,56.38
2022-10-09T03:29:27.045Z,53.35
2022-10-09T03:30:27.038Z,58.41
2022-10-09T03:31:50.558Z,53.78
2022-10-09T03:32:29.061Z,59.73
2022-10-09T03:33:27.008Z,58.10
2022-10-09T03:34:26.998Z,59.20
2022-10-09T03:35:26.985Z,58.31
2022-10-09T03:36:26.993Z,58.19
2022-10-09T03:37:26.973Z,54.41
2022-10-09T03:38:26.954Z,53.79
2022-10-09T03:39:26.957Z,58.04
2022-10-09T03:40:27.045Z,54.18
2022-10-09T03:41:27.059Z,54.47
2022-10-09T03:42:26.921Z,58.77
2022-10-09T03:43:26.908Z,53.55
2022-10-09T03:44:26.893Z,54.88
2022-10-09T03:45:26.896Z,55.94
2022-10-09T03:46:26.923Z,55.02
2022-10-09T03:47:26.852Z,57.10
2022-10-09T03:48:26.850Z,54.29
2022-10-09T03:49:26.835Z,57.42
2022-10-09T03:50:26.833Z,56.07
2022-10-09T03:51:26.819Z,57.48
2022-10-09T03:52:26.828Z,59.10
2022-10-09T03:53:26.794Z,58.02
2022-10-09T03:54:26.778Z,58.83
2022-10-09T03:55:26.775Z,56.03
2022-10-09T03:56:26.753Z,58.42
2022-10-09T03:57:27.816Z,57.28
2022-10-09T03:58:26.749Z,57.31
2022-10-09T03:59:26.734Z,55.55
2022-10-09T04:00:26.724Z,56.11
2022-10-09T04:01:26.771Z,57.05
2022-10-09T04:02:26.787Z,59.27
2022-10-09T04:03:26.695Z,55.05
2022-10-09T04:04:26.682Z,55.79
2022-10-09T04:05:26.673Z,58.67
2022-10-09T04:06:26.662Z,56.20
2022-10-09T04:07:26.679Z,57.09
2022-10-09T04:08:26.639Z,54.64
2022-10-09T04:09:26.631Z,57.34
2022-10-09T04:10:26.619Z,56.95
2022-10-09T04:11:26.613Z,56.21
2022-10-09T04:12:26.619Z,58.93
2022-10-09T04:13:26.595Z,54.95
2022-10-09T04:14:26.583Z,56.91
2022-10-09T04:15:26.564Z,58.23
2022-10-09T04:16:26.643Z,60.46
2022-10-09T04:17:26.556Z,57.86
2022-10-09T04:18:26.532Z,58.74
2022-10-09T04:19:26.525Z,56.00
2022-10-09T04:20:26.511Z,57.03
2022-10-09T04:21:27.524Z,57.25
2022-10-09T04:22:26.493Z,58.17
2022-10-09T04:23:26.493Z,58.09
2022-10-09T04:24:26.475Z,58.16
2022-10-09T04:25:26.474Z,58.86
2022-10-09T04:26:26.457Z,59.32
2022-10-09T04:27:26.456Z,59.82
2022-10-09T04:28:26.500Z,58.94
2022-10-09T04:29:26.426Z,56.20
2022-10-09T04:30:26.416Z,58.04
2022-10-09T04:31:26.466Z,57.88
2022-10-09T04:32:26.408Z,60.51
2022-10-09T04:33:26.390Z,58.06
2022-10-09T04:34:26.380Z,57.69
2022-10-09T04:35:26.368Z,53.72
2022-10-09T04:36:26.354Z,58.72
2022-10-09T04:37:26.357Z,57.24
2022-10-09T04:38:26.328Z,58.64
2022-10-09T04:39:27.327Z,59.23
2022-10-09T04:40:26.314Z,55.93
2022-10-09T04:41:26.304Z,58.13
2022-10-09T04:42:26.313Z,57.55
2022-10-09T04:43:26.284Z,61.14
2022-10-09T04:44:26.274Z,59.85
2022-10-09T04:45:26.343Z,59.49
2022-10-09T04:46:26.263Z,58.86
2022-10-09T04:47:26.244Z,59.75
2022-10-09T04:48:26.233Z,56.91
2022-10-09T04:49:26.226Z,57.03
2022-10-09T04:50:26.213Z,60.69
2022-10-09T04:51:26.211Z,59.09
2022-10-09T04:52:26.193Z,56.95
2022-10-09T04:53:26.178Z,56.81
2022-10-09T04:54:26.170Z,56.55
2022-10-09T04:55:26.162Z,57.44
2022-10-09T04:56:26.159Z,56.26
2022-10-09T04:57:26.144Z,58.29
2022-10-09T04:58:26.127Z,57.97
2022-10-09T04:59:26.122Z,60.08
2022-10-09T05:00:26.107Z,59.45
2022-10-09T05:01:26.194Z,59.01
2022-10-09T05:02:26.188Z,57.79
2022-10-09T05:03:26.083Z,60.47
2022-10-09T05:04:26.069Z,57.93
2022-10-09T05:05:26.059Z,59.36
2022-10-09T05:06:26.057Z,58.77
2022-10-09T05:07:26.038Z,61.66
2022-10-09T05:08:26.026Z,59.15
2022-10-09T05:09:26.015Z,53.93
2022-10-09T05:10:26.003Z,59.54
2022-10-09T05:11:26.004Z,57.97
2022-10-09T05:12:25.987Z,57.73
2022-10-09T05:13:25.973Z,61.50
2022-10-09T05:14:25.963Z,57.35
2022-10-09T05:15:25.951Z,58.64
2022-10-09T05:16:25.982Z,59.31
2022-10-09T05:17:26.018Z,60.89
2022-10-09T05:18:25.924Z,58.00
2022-10-09T05:19:25.914Z,59.96
2022-10-09T05:20:25.907Z,57.97
2022-10-09T05:21:25.905Z,56.05
2022-10-09T05:22:25.883Z,56.99
2022-10-09T05:23:25.871Z,59.36
2022-10-09T05:24:25.872Z,60.08
2022-10-09T05:25:25.854Z,59.74
2022-10-09T05:26:25.855Z,60.59
2022-10-09T05:27:25.841Z,58.13
2022-10-09T05:28:25.926Z,58.14
2022-10-09T05:29:25.816Z,59.09
2022-10-09T05:30:25.808Z,58.65
2022-10-09T05:31:25.902Z,58.47
2022-10-09T05:32:25.792Z,55.81
2022-10-09T05:33:25.784Z,60.55
2022-10-09T05:34:25.774Z,59.69
2022-10-09T05:35:25.767Z,60.72
2022-10-09T05:36:25.763Z,59.86
2022-10-09T05:37:25.748Z,59.10
2022-10-09T05:38:25.739Z,59.07
2022-10-09T05:39:25.726Z,59.31
2022-10-09T05:40:29.050Z,61.12
2022-10-09T05:41:26.718Z,60.11
2022-10-09T05:42:25.699Z,60.39
2022-10-09T05:43:25.690Z,57.52
2022-10-09T05:44:25.682Z,60.36
2022-10-09T05:45:25.668Z,57.86
2022-10-09T05:46:25.669Z,58.46
2022-10-09T05:47:25.653Z,60.86
2022-10-09T05:48:25.640Z,56.25
2022-10-09T05:49:25.633Z,57.86
2022-10-09T05:50:25.624Z,58.57
2022-10-09T05:51:25.619Z,59.05
2022-10-09T05:52:25.629Z,59.80
2022-10-09T05:53:25.588Z,59.09
2022-10-09T05:54:25.585Z,59.87
2022-10-09T05:55:25.579Z,60.27
2022-10-09T05:56:25.567Z,60.20
2022-10-09T05:57:25.547Z,57.16
2022-10-09T05:58:25.541Z,59.62
2022-10-09T05:59:25.532Z,61.96
2022-10-09T06:00:25.529Z,59.67
2022-10-09T06:01:25.593Z,60.58
2022-10-09T06:02:25.600Z,57.97
2022-10-09T06:03:25.492Z,60.10
2022-10-09T06:04:25.482Z,59.67
2022-10-09T06:05:25.478Z,61.21
2022-10-09T06:06:25.472Z,61.19
2022-10-09T06:07:25.453Z,61.90
2022-10-09T06:08:25.440Z,59.41
2022-10-09T06:09:25.449Z,59.48
2022-10-09T06:10:28.020Z,58.49
2022-10-09T06:11:26.456Z,59.18
2022-10-09T06:12:25.407Z,57.37
2022-10-09T06:13:25.403Z,58.39
2022-10-09T06:14:25.386Z,60.96
2022-10-09T06:15:25.376Z,60.99
2022-10-09T06:16:25.462Z,61.53
2022-10-09T06:17:25.360Z,58.68
2022-10-09T06:18:25.347Z,60.14
2022-10-09T06:19:25.345Z,60.31
2022-10-09T06:20:25.328Z,62.26
2022-10-09T06:21:25.331Z,59.62
2022-10-09T06:22:25.307Z,58.68
2022-10-09T06:23:25.296Z,60.98
2022-10-09T06:24:28.704Z,60.47
2022-10-09T06:25:26.272Z,61.13
2022-10-09T06:26:25.272Z,59.15
2022-10-09T06:27:25.257Z,58.09
2022-10-09T06:28:25.295Z,59.97
2022-10-09T06:29:25.245Z,59.16
2022-10-09T06:30:25.224Z,60.77
2022-10-09T06:31:25.273Z,62.07
2022-10-09T06:32:25.203Z,59.68
2022-10-09T06:33:25.226Z,61.83
2022-10-09T06:34:25.186Z,60.41
2022-10-09T06:35:25.174Z,60.51
2022-10-09T06:36:25.175Z,56.85
2022-10-09T06:37:25.155Z,58.83
2022-10-09T06:38:25.144Z,59.20
2022-10-09T06:39:25.136Z,58.53
2022-10-09T06:40:25.125Z,58.03
2022-10-09T06:41:25.150Z,57.73
2022-10-09T06:42:25.102Z,58.36
2022-10-09T06:43:25.092Z,58.99
2022-10-09T06:44:25.084Z,60.11
2022-10-09T06:45:25.086Z,58.55
2022-10-09T06:46:25.138Z,58.05
2022-10-09T06:47:25.055Z,60.02
2022-10-09T06:48:25.042Z,59.45
2022-10-09T06:49:25.039Z,56.69
2022-10-09T06:50:25.020Z,58.49
2022-10-09T06:51:25.023Z,60.12
2022-10-09T06:52:25.003Z,58.18
2022-10-09T06:53:24.990Z,58.91
2022-10-09T06:54:24.982Z,58.50
2022-10-09T06:55:28.601Z,59.17
2022-10-09T06:56:25.971Z,60.06
2022-10-09T06:57:24.951Z,58.31
2022-10-09T06:58:24.943Z,59.84
2022-10-09T06:59:24.926Z,59.86
2022-10-09T07:00:24.921Z,59.12
2022-10-09T07:01:24.982Z,57.84
2022-10-09T07:02:24.937Z,59.19
2022-10-09T07:03:24.894Z,58.99
2022-10-09T07:04:24.882Z,58.59
2022-10-09T07:05:24.878Z,58.71
2022-10-09T07:06:24.870Z,57.14
2022-10-09T07:07:24.879Z,57.70
2022-10-09T07:08:24.842Z,58.93
2022-10-09T07:09:24.828Z,59.32
2022-10-09T07:10:25.411Z,59.84
2022-10-09T07:11:25.818Z,60.02
2022-10-09T07:12:24.804Z,59.10
2022-10-09T07:13:24.791Z,57.99
2022-10-09T07:14:24.778Z,58.68
2022-10-09T07:15:24.781Z,57.74
2022-10-09T07:16:24.833Z,57.51
2022-10-09T07:17:25.747Z,59.62
2022-10-09T07:18:24.733Z,59.55
2022-10-09T07:19:24.727Z,57.45
2022-10-09T07:20:24.716Z,58.85
2022-10-09T07:21:24.712Z,60.73
2022-10-09T07:22:26.965Z,59.73
2022-10-09T07:23:25.690Z,58.82
2022-10-09T07:24:24.678Z,60.99
2022-10-09T07:25:24.671Z,59.61
2022-10-09T07:26:24.669Z,60.74
2022-10-09T07:27:24.652Z,59.90
2022-10-09T07:28:24.722Z,60.48
2022-10-09T07:29:24.622Z,58.07
2022-10-09T07:30:24.620Z,58.60
2022-10-09T07:31:24.688Z,60.20
2022-10-09T07:32:24.599Z,60.26
2022-10-09T07:33:24.584Z,59.60
2022-10-09T07:34:24.574Z,60.12
2022-10-09T07:35:24.563Z,59.67
2022-10-09T07:36:24.566Z,59.38
2022-10-09T07:37:24.548Z,60.86
2022-10-09T07:38:24.535Z,59.61
2022-10-09T07:39:24.523Z,60.25
2022-10-09T07:40:24.514Z,59.29
2022-10-09T07:41:24.514Z,59.84
2022-10-09T07:42:24.495Z,59.70
2022-10-09T07:43:24.478Z,60.36
2022-10-09T07:44:24.476Z,60.21
2022-10-09T07:45:24.467Z,60.27
2022-10-09T07:46:24.515Z,61.32
2022-10-09T07:47:24.455Z,59.99
2022-10-09T07:48:24.430Z,60.23
2022-10-09T07:49:24.418Z,60.66
2022-10-09T07:50:24.405Z,62.41
2022-10-09T07:51:24.396Z,61.51
2022-10-09T07:52:24.398Z,60.47
2022-10-09T07:53:24.377Z,61.55
2022-10-09T07:54:24.361Z,60.86
2022-10-09T07:55:24.350Z,59.13
2022-10-09T07:56:24.340Z,60.51
2022-10-09T07:57:24.338Z,61.19
2022-10-09T07:58:24.321Z,62.31
2022-10-09T07:59:24.307Z,62.80
2022-10-09T08:00:24.343Z,63.22
2022-10-09T08:01:24.315Z,62.05
2022-10-09T08:02:24.339Z,62.18
2022-10-09T08:03:24.267Z,64.12
2022-10-09T08:04:24.258Z,61.56
2022-10-09T08:05:24.244Z,63.14
2022-10-09T08:06:24.236Z,62.13
2022-10-09T08:07:24.238Z,63.26
2022-10-09T08:08:24.214Z,63.06
2022-10-09T08:09:24.211Z,64.53
2022-10-09T08:10:24.225Z,62.09
2022-10-09T08:11:24.189Z,63.03
2022-10-09T08:12:24.189Z,61.64
2022-10-09T08:13:24.161Z,62.91
2022-10-09T08:14:24.152Z,62.24
2022-10-09T08:15:24.145Z,61.58
2022-10-09T08:16:24.133Z,63.77
2022-10-09T08:17:24.135Z,64.38
2022-10-09T08:18:24.109Z,63.87
2022-10-09T08:19:24.101Z,63.92
2022-10-09T08:20:24.168Z,63.96
2022-10-09T08:21:24.077Z,61.81
2022-10-09T08:22:24.084Z,64.48
2022-10-09T08:23:24.074Z,62.72
2022-10-09T08:24:24.047Z,64.44
2022-10-09T08:25:24.037Z,64.98
2022-10-09T08:26:24.029Z,64.61
2022-10-09T08:27:24.019Z,64.42
2022-10-09T08:28:25.068Z,65.11
2022-10-09T08:29:24.004Z,64.22
2022-10-09T08:30:24.024Z,62.04
2022-10-09T08:31:24.048Z,64.66
2022-10-09T08:32:23.978Z,63.48
2022-10-09T08:33:23.960Z,63.67
2022-10-09T08:34:23.948Z,63.32
2022-10-09T08:35:23.941Z,64.41
2022-10-09T08:36:23.939Z,64.81
2022-10-09T08:37:23.919Z,63.63
2022-10-09T08:38:46.236Z,63.43
2022-10-09T08:39:25.899Z,63.64
2022-10-09T08:40:23.883Z,64.06
2022-10-09T08:41:23.895Z,66.16
2022-10-09T08:42:23.859Z,64.54
2022-10-09T08:43:23.854Z,65.82
2022-10-09T08:44:23.846Z,64.49
2022-10-09T08:45:23.832Z,64.55
2022-10-09T08:46:23.865Z,64.92
2022-10-09T08:47:23.824Z,64.01
2022-10-09T08:48:23.799Z,64.19
2022-10-09T08:49:23.803Z,64.52
2022-10-09T08:50:23.784Z,63.16
2022-10-09T08:51:23.783Z,64.44
2022-10-09T08:52:23.761Z,66.06
2022-10-09T08:53:23.756Z,65.52
2022-10-09T08:54:23.731Z,67.63
2022-10-09T08:55:24.724Z,67.59
2022-10-09T08:56:23.734Z,63.57
2022-10-09T08:57:23.704Z,65.98
2022-10-09T08:58:23.714Z,65.09
2022-10-09T08:59:23.684Z,64.74
2022-10-09T09:00:23.672Z,64.39
2022-10-09T09:01:23.740Z,65.77
2022-10-09T09:02:23.693Z,64.01
2022-10-09T09:03:23.644Z,65.12
2022-10-09T09:04:23.632Z,65.69
2022-10-09T09:05:23.622Z,64.40
2022-10-09T09:06:23.632Z,64.48
2022-10-09T09:07:23.601Z,66.40
2022-10-09T09:08:23.596Z,66.04
2022-10-09T09:09:23.578Z,65.78
2022-10-09T09:10:23.577Z,65.68
2022-10-09T09:11:23.567Z,64.44
2022-10-09T09:12:23.549Z,64.85
2022-10-09T09:13:23.543Z,65.97
2022-10-09T09:14:23.536Z,66.68
2022-10-09T09:15:23.517Z,67.52
2022-10-09T09:16:23.595Z,66.42
2022-10-09T09:17:23.498Z,66.20
2022-10-09T09:18:23.490Z,64.82
2022-10-09T09:19:23.483Z,64.95
2022-10-09T09:20:23.467Z,64.80
2022-10-09T09:21:23.457Z,63.87
2022-10-09T09:22:23.457Z,65.86
2022-10-09T09:23:23.433Z,64.66
2022-10-09T09:24:23.425Z,64.89
2022-10-09T09:25:23.414Z,65.63
2022-10-09T09:26:23.416Z,66.30
2022-10-09T09:27:23.404Z,65.38
2022-10-09T09:28:23.443Z,65.45
2022-10-09T09:29:23.391Z,67.40
2022-10-09T09:30:23.365Z,66.33
2022-10-09T09:31:23.396Z,66.44
2022-10-09T09:32:23.354Z,65.79
2022-10-09T09:33:23.329Z,67.42
2022-10-09T09:34:23.325Z,65.04
2022-10-09T09:35:23.314Z,67.05
2022-10-09T09:36:23.308Z,65.85
2022-10-09T09:37:23.302Z,65.92
2022-10-09T09:38:23.279Z,66.52
2022-10-09T09:40:44.348Z,67.29
2022-10-09T09:41:25.262Z,66.07
2022-10-09T09:42:23.240Z,65.90
2022-10-09T09:43:23.218Z,65.63
2022-10-09T09:44:24.214Z,64.80
2022-10-09T09:45:23.208Z,62.43
2022-10-09T09:46:23.267Z,65.69
2022-10-09T09:47:23.197Z,67.92
2022-10-09T09:48:23.218Z,66.46
2022-10-09T09:49:23.157Z,67.83
2022-10-09T09:50:45.987Z,67.70
2022-10-09T09:51:29.375Z,65.20
2022-10-09T09:52:24.144Z,66.89
2022-10-09T09:53:23.119Z,67.60
2022-10-09T09:54:23.110Z,66.93
2022-10-09T09:55:23.100Z,66.29
2022-10-09T09:56:23.094Z,66.68
2022-10-09T09:57:23.095Z,66.43
2022-10-09T09:58:23.072Z,64.87
2022-10-09T09:59:23.064Z,65.29
2022-10-09T10:00:23.053Z,66.09
2022-10-09T10:01:23.089Z,64.88
2022-10-09T10:02:24.176Z,66.17
2022-10-09T10:03:23.022Z,66.36
2022-10-09T10:04:23.020Z,66.26
2022-10-09T10:05:23.002Z,65.68
2022-10-09T10:06:22.995Z,65.13
2022-10-09T10:07:23.057Z,66.54
2022-10-09T10:08:22.975Z,65.13
2022-10-09T10:09:22.964Z,64.12
2022-10-09T10:10:25.593Z,65.67
2022-10-09T10:11:23.944Z,66.04
2022-10-09T10:12:23.061Z,64.92
2022-10-09T10:13:22.914Z,65.86
2022-10-09T10:14:23.908Z,67.24
2022-10-09T10:15:22.901Z,65.47
2022-10-09T10:16:22.964Z,66.49
2022-10-09T10:17:22.898Z,67.34
2022-10-09T10:18:22.874Z,65.99
2022-10-09T10:19:22.851Z,65.02
2022-10-09T10:20:23.849Z,66.49
2022-10-09T10:21:22.840Z,66.81
2022-10-09T10:22:22.844Z,68.80
2022-10-09T10:23:22.820Z,68.50
2022-10-09T10:24:22.825Z,68.83
2022-10-09T10:25:22.804Z,66.61
2022-10-09T10:26:22.791Z,68.74
2022-10-09T10:27:22.795Z,66.79
2022-10-09T10:28:22.801Z,67.55
2022-10-09T10:29:22.760Z,65.92
2022-10-09T10:30:22.751Z,67.58
2022-10-09T10:31:22.772Z,64.73
2022-10-09T10:32:22.741Z,68.08
2022-10-09T10:33:22.725Z,64.76
2022-10-09T10:34:22.711Z,67.39
2022-10-09T10:35:22.701Z,66.04
2022-10-09T10:36:22.689Z,66.70
2022-10-09T10:37:22.688Z,64.86
2022-10-09T10:38:22.671Z,65.24
2022-10-09T10:39:22.659Z,66.40
2022-10-09T10:40:22.642Z,67.12
2022-10-09T10:41:22.634Z,67.36
2022-10-09T10:42:22.632Z,67.42
2022-10-09T10:43:22.629Z,67.81
2022-10-09T10:44:22.602Z,66.51
2022-10-09T10:45:22.592Z,67.67
2022-10-09T10:46:22.602Z,65.68
2022-10-09T10:47:22.591Z,65.75
2022-10-09T10:48:22.562Z,65.03
2022-10-09T10:49:22.548Z,66.85
2022-10-09T10:50:22.538Z,63.79
2022-10-09T10:51:22.529Z,65.97
2022-10-09T10:52:22.531Z,65.20
2022-10-09T10:53:22.508Z,67.82
2022-10-09T10:54:22.502Z,66.64
2022-10-09T10:55:22.491Z,67.41
2022-10-09T10:56:22.483Z,65.74
2022-10-09T10:57:22.489Z,65.34
2022-10-09T10:58:22.465Z,64.59
2022-10-09T10:59:22.531Z,65.35
2022-10-09T11:00:22.441Z,65.35
2022-10-09T11:01:22.535Z,65.23
2022-10-09T11:02:22.433Z,67.94
2022-10-09T11:03:22.481Z,68.03
2022-10-09T11:04:22.407Z,66.75
2022-10-09T11:05:22.397Z,66.57
2022-10-09T11:06:22.383Z,65.97
2022-10-09T11:07:22.382Z,66.62
2022-10-09T11:08:22.370Z,67.21
2022-10-09T11:09:22.351Z,64.77
2022-10-09T11:10:22.339Z,65.13
2022-10-09T11:11:22.340Z,64.93
2022-10-09T11:12:43.317Z,63.63
2022-10-09T11:13:24.309Z,67.79
2022-10-09T11:14:22.308Z,66.44
2022-10-09T11:15:22.296Z,64.82
2022-10-09T11:16:22.332Z,66.04
2022-10-09T11:17:22.282Z,66.26
2022-10-09T11:18:22.264Z,66.12
2022-10-09T11:19:22.247Z,65.04
2022-10-09T11:20:22.238Z,65.24
2022-10-09T11:21:22.245Z,65.96
2022-10-09T11:22:22.220Z,66.44
2022-10-09T11:23:22.206Z,66.00
2022-10-09T11:24:22.200Z,67.03
2022-10-09T11:25:22.189Z,64.30
2022-10-09T11:26:22.186Z,63.88
2022-10-09T11:27:22.165Z,63.69
2022-10-09T11:28:22.223Z,63.02
2022-10-09T11:29:22.145Z,64.32
2022-10-09T11:30:22.135Z,66.08
2022-10-09T11:31:22.289Z,66.97
2022-10-09T11:32:22.112Z,65.36
2022-10-09T11:33:22.115Z,65.02
2022-10-09T11:34:22.096Z,63.88
2022-10-09T11:35:22.087Z,64.70
2022-10-09T11:36:22.096Z,63.46
2022-10-09T11:37:22.062Z,64.36
2022-10-09T11:38:23.064Z,65.61
2022-10-09T11:39:22.049Z,62.98
2022-10-09T11:40:22.036Z,64.18
2022-10-09T11:41:22.030Z,66.03
2022-10-09T11:42:22.071Z,66.62
2022-10-09T11:43:22.004Z,66.01
2022-10-09T11:44:22.001Z,65.74
2022-10-09T11:45:21.985Z,68.15
2022-10-09T11:46:21.975Z,65.79
2022-10-09T11:47:21.977Z,65.52
2022-10-09T11:48:21.955Z,65.08
2022-10-09T11:49:21.948Z,65.99
2022-10-09T11:50:21.937Z,66.28
2022-10-09T11:51:21.934Z,66.26
2022-10-09T11:52:21.931Z,66.98
2022-10-09T11:53:21.904Z,68.31
2022-10-09T11:54:21.893Z,64.79
2022-10-09T11:55:21.882Z,65.08
2022-10-09T11:56:21.881Z,66.28
2022-10-09T11:57:21.874Z,66.07
2022-10-09T11:58:21.851Z,64.42
2022-10-09T11:59:21.846Z,63.54
2022-10-09T12:00:21.842Z,63.40
2022-10-09T12:01:21.923Z,65.06
2022-10-09T12:02:21.872Z,65.04
2022-10-09T12:03:21.805Z,63.32
2022-10-09T12:04:37.424Z,64.53
2022-10-09T12:05:23.780Z,64.53
2022-10-09T12:06:21.770Z,62.64
2022-10-09T12:07:21.771Z,64.29
2022-10-09T12:08:21.748Z,63.31
2022-10-09T12:09:21.743Z,63.71
2022-10-09T12:10:21.727Z,64.63
2022-10-09T12:11:21.716Z,64.49
2022-10-09T12:12:21.888Z,64.13
2022-10-09T12:13:21.700Z,64.30
2022-10-09T12:14:21.691Z,64.49
2022-10-09T12:15:21.687Z,65.77
2022-10-09T12:16:21.710Z,66.32
2022-10-09T12:17:21.671Z,63.63
2022-10-09T12:18:21.650Z,63.00
2022-10-09T12:19:21.646Z,62.26
2022-10-09T12:20:21.644Z,64.18
2022-10-09T12:21:21.623Z,63.75
2022-10-09T12:22:21.626Z,63.23
2022-10-09T12:23:26.837Z,62.31
2022-10-09T12:24:23.602Z,62.14
2022-10-09T12:25:21.572Z,62.71
2022-10-09T12:26:22.594Z,63.54
2022-10-09T12:27:21.573Z,66.06
2022-10-09T12:28:21.671Z,65.77
2022-10-09T12:29:21.550Z,64.79
2022-10-09T12:30:21.539Z,66.44
2022-10-09T12:31:21.578Z,65.47
2022-10-09T12:32:21.516Z,67.91
2022-10-09T12:33:21.504Z,65.66
2022-10-09T12:34:21.497Z,65.25
2022-10-09T12:35:21.491Z,65.36
2022-10-09T12:36:21.486Z,65.26
2022-10-09T12:37:21.463Z,64.76
2022-10-09T12:38:21.454Z,64.80
2022-10-09T12:39:21.442Z,67.64
2022-10-09T12:40:21.437Z,66.64
2022-10-09T12:41:21.434Z,67.77
2022-10-09T12:42:21.486Z,67.19
2022-10-09T12:43:21.406Z,67.62
2022-10-09T12:44:21.394Z,66.49
2022-10-09T12:45:21.380Z,66.17
2022-10-09T12:46:21.413Z,64.63
2022-10-09T12:47:21.360Z,67.66
2022-10-09T12:48:21.347Z,65.95
2022-10-09T12:49:21.342Z,68.34
2022-10-09T12:50:21.330Z,69.69
2022-10-09T12:51:21.330Z,67.61
2022-10-09T12:52:21.312Z,69.29
2022-10-09T12:53:21.300Z,65.27